Jacksonville, IL

5:27 AM CDT on July 25, 2014 (GMT -0500)
Pittsfield Penstone Municipal (KPPQ) Elev 709 ft | 39.64 °N, 90.78 °W | Change Station

Current weather conditions updated 12 minutes ago

Clear
Clear
60 °F
Feels Like 60 °F
N
4
Wind Variable Wind from SSE

Today is forecast to be nearly the same temperature as yesterday. Chance of afternoon showers.

Today
High -- | Low -- °F
--% Chance of Precip.
Yesterday
High -- | Low -- °F
Precip. -- in
5:53 AM 8:20 PM
Waning Crescent, 2% visible
Pressure 30.02 in
Visibility 10.0 miles
Clouds Clear
Dew Point 56 °F
Humidity 86%
Rainfall 0.00 in
Snow Depth Not available.
UV 0 out of 12
Pollen 5.80 out of 12
Ozone Good
PM2.5 Good
Flu Activity Not available.
METAR KPPQ 251015Z AUTO 15003KT 10SM CLR 16/13 A3002 RMK AO2 T01560133

More Conditions Fewer Conditions

Pressure 30.02 in
Visibility 10.0 miles
Clouds Clear
Dew Point 56 °F
Humidity 86%
Rainfall 0.00 in
Snow Depth Not available.
UV 0 out of 12
Pollen 5.80 out of 12
Ozone Good
PM2.5 Good
Flu Activity Not available.
METAR KPPQ 251015Z AUTO 15003KT 10SM CLR 16/13 A3002 RMK AO2 T01560133

More Conditions Fewer Conditions

10-Day Weather Forecast

Almanac

Astronomy

Jul. 25, 2014 Rise Set
Actual Time 5:53 AM CDT 8:20 PM CDT
Civil Twilight 5:22 AM CDT 8:51 PM CDT
Nautical Twilight 4:44 AM CDT 9:29 PM CDT
Astronomical Twilight 4:02 AM CDT 10:11 PM CDT
Moon 4:53 AM CDT 7:18 PM CDT
Length of Visible Light 15h 28m
Length of Day
14h 27m
Tomorrow will be 1m 46s shorter.
Waning Crescent, 2% of the Moon is Illuminated
Today
Waning Crescent
Jul 26
New
Aug 3
First Quarter
Aug 10
Full
Aug 17
Last Quarter

Today's Extremes

State Highs State Lows

Community

WunderPhotos

Upload Photos

1,737,277 photos uploaded!

Nearby

Air Quality

  Air Quality AQ Index Pollutant
Yesterday Good
OZONE
Yesterday Good
PM2.5
Current Good
OZONE
Current Good
PM2.5
Friday Good
PM2.5
Friday Good
OZONE
Saturday Good
PM2.5
Saturday Good
OZONE
Sunday Good
PM2.5
Sunday Good
OZONE
Monday Good
PM2.5
Monday Good
OZONE
Tuesday Good
PM2.5
Tuesday Good
OZONE

Snow Depth

Station Depth Elevation
No new snow has been reported.

Earthquake Activity

City Distance Mag. Time & Date
No recent earthquake activity has been reported nearby.
Minimum magnitude displayed is 2.5.

Coastal Water Temperatures

Place Temperature
No Stations Reporting

Nearby Weather Stations

Station Location Temp. Dew Point Humidity Wind Precip. Elev Updated Type
Book Lane, Jacksonville, IL 62.6 °F 56 °F 78% South  at  0.9 mph - / hr 663 ft 5:27 AM CDT Rapid Fire
Weather Station 62694, Winchester, IL 60.8 °F 57 °F 87% South  at  2.2 mph 0.00 in / hr 548 ft 4:21 AM CDT Rapid Fire
Smith Farms, New Berlin, IL 56.7 °F 54 °F 89% ESE  at  4.2 mph - / hr 656 ft 5:26 AM CDT Normal
HADS ILLINOIS RIVER AT VALLEY CITY IL, Griggsville, IL 60 °F - - North  at  - 0.00 in / hr 416 ft 4:00 AM CDT MADIS

Show More Stations Show Fewer Stations